Time;durP1;ratioP1;P1;durP2;ratioP2;P2;SDS_P1;SDS_P2;PMS_P1;PMS_P2;Temp;Humidity;BMP_temperature;BMP_pressure;BME280_temperature;BME280_humidity;BME280_pressure;Samples;Min_cycle;Max_cycle;Signal;HPM_P1;HPM_P2
2021/04/02 00:00:45;;;;;;;8.88;2.10;;;3.30;89.20;;;;;;5068403;28;20049;-66
2021/04/02 00:03:21;;;;;;;7.97;1.98;;;3.30;88.90;;;;;;5044224;28;20037;-66
2021/04/02 00:05:47;;;;;;;6.88;2.05;;;3.30;90.00;;;;;;5072983;28;20522;-66
2021/04/02 00:08:13;;;;;;;7.20;2.33;;;3.20;90.00;;;;;;5073066;28;20436;-66
2021/04/02 00:10:50;;;;;;;10.50;2.33;;;3.30;89.60;;;;;;5072370;28;20056;-66
2021/04/02 00:13:20;;;;;;;3.63;1.90;;;3.30;90.00;;;;;;5073591;28;20059;-66
2021/04/02 00:15:48;;;;;;;6.88;2.08;;;3.30;90.00;;;;;;5072839;28;20044;-66
2021/04/02 00:18:14;;;;;;;7.55;2.30;;;3.20;89.50;;;;;;5073450;28;20119;-66
2021/04/02 00:20:40;;;;;;;4.25;1.70;;;3.30;89.40;;;;;;5072179;28;20148;-66
2021/04/02 00:23:07;;;;;;;6.45;2.05;;;3.20;89.00;;;;;;5072767;28;20434;-66
2021/04/02 00:25:36;;;;;;;8.80;2.25;;;3.20;89.00;;;;;;5073192;28;20470;-66
2021/04/02 00:28:04;;;;;;;7.25;2.53;;;3.20;89.20;;;;;;5072816;28;20036;-66
2021/04/02 00:30:42;;;;;;;7.20;2.05;;;3.20;89.20;;;;;;5068073;28;20045;-66
2021/04/02 00:33:08;;;;;;;3.13;1.67;;;3.20;90.00;;;;;;5072058;28;20040;-66
2021/04/02 00:35:35;;;;;;;6.60;2.20;;;3.20;90.00;;;;;;5071779;28;20450;-66
2021/04/02 00:38:02;;;;;;;8.32;2.20;;;3.20;90.10;;;;;;5072580;28;20040;-66
2021/04/02 00:40:35;;;;;;;11.57;2.80;;;3.20;90.20;;;;;;5071611;28;20650;-65
2021/04/02 00:43:01;;;;;;;10.32;2.75;;;3.20;90.30;;;;;;5054866;28;20032;-66
2021/04/02 00:45:27;;;;;;;6.35;2.15;;;3.20;90.10;;;;;;5073125;28;20090;-66
2021/04/02 00:47:54;;;;;;;3.88;2.20;;;3.20;90.10;;;;;;5072721;28;20044;-66
2021/04/02 00:50:43;;;;;;;8.38;2.00;;;3.10;90.10;;;;;;5072307;28;20040;-66
2021/04/02 00:53:09;;;;;;;7.90;2.30;;;3.10;90.10;;;;;;5073019;28;20044;-66
2021/04/02 00:55:36;;;;;;;6.05;2.53;;;3.10;90.10;;;;;;5072150;28;20045;-66
2021/04/02 00:58:03;;;;;;;6.30;2.35;;;3.10;90.00;;;;;;5073664;28;20046;-66
2021/04/02 01:00:31;;;;;;;11.85;2.65;;;3.10;90.30;;;;;;5054115;28;20033;-66
2021/04/02 01:02:57;;;;;;;7.43;2.45;;;3.10;90.40;;;;;;5072202;28;20040;-66
2021/04/02 01:05:26;;;;;;;7.93;2.67;;;3.10;90.50;;;;;;5071117;28;20548;-66
2021/04/02 01:07:58;;;;;;;10.65;2.58;;;3.10;90.60;;;;;;5071523;28;20082;-66
2021/04/02 01:10:25;;;;;;;10.47;2.93;;;3.10;90.60;;;;;;5072474;28;20084;-66
2021/04/02 01:12:57;;;;;;;6.28;2.65;;;3.10;91.10;;;;;;5072724;28;20681;-65
2021/04/02 01:15:33;;;;;;;10.23;3.25;;;3.10;91.10;;;;;;5071506;28;20370;-66
2021/04/02 01:18:03;;;;;;;8.70;3.28;;;3.10;91.50;;;;;;5072580;28;20041;-66
2021/04/02 01:20:31;;;;;;;10.90;3.58;;;3.10;91.50;;;;;;5072730;28;20036;-66
2021/04/02 01:23:02;;;;;;;9.25;3.47;;;3.10;91.80;;;;;;5071259;28;20028;-66
2021/04/02 01:25:46;;;;;;;7.22;3.50;;;3.20;91.60;;;;;;5083595;22;20574;-64
2021/04/02 01:28:27;;;;;;;13.00;4.88;;;3.20;92.20;;;;;;5085038;28;20040;-64
2021/04/02 01:30:55;;;;;;;10.50;3.83;;;3.30;93.00;;;;;;5090523;28;20058;-64
2021/04/02 01:33:22;;;;;;;8.30;4.15;;;3.40;92.70;;;;;;5090353;28;20040;-64
2021/04/02 01:35:49;;;;;;;8.35;3.67;;;3.50;92.60;;;;;;5091179;28;20089;-64
2021/04/02 01:38:22;;;;;;;9.45;4.40;;;3.60;92.60;;;;;;5089127;28;20040;-64
2021/04/02 01:40:50;;;;;;;8.88;3.50;;;3.70;92.50;;;;;;5092035;28;20553;-64
2021/04/02 01:43:21;;;;;;;10.13;3.95;;;3.80;92.40;;;;;;5092340;28;20042;-64
2021/04/02 01:45:47;;;;;;;10.85;4.10;;;3.80;92.10;;;;;;5092039;28;20111;-64
2021/04/02 01:48:14;;;;;;;10.93;3.80;;;3.90;91.90;;;;;;5090387;28;20115;-64
2021/04/02 01:50:45;;;;;;;6.82;3.20;;;4.00;91.60;;;;;;5091425;28;20536;-64
2021/04/02 01:53:12;;;;;;;10.20;3.10;;;4.00;91.90;;;;;;5090666;28;20036;-64
2021/04/02 01:55:39;;;;;;;10.57;3.42;;;4.10;92.30;;;;;;5088310;28;20047;-64
2021/04/02 01:58:06;;;;;;;7.95;3.20;;;4.20;91.60;;;;;;5091573;28;20036;-64
2021/04/02 02:00:40;;;;;;;9.05;3.15;;;4.20;91.10;;;;;;5092469;28;20036;-64
2021/04/02 02:03:07;;;;;;;7.82;2.75;;;4.10;91.00;;;;;;5091635;28;20027;-65
2021/04/02 02:05:34;;;;;;;5.85;2.50;;;4.10;91.10;;;;;;5092218;28;20444;-64
2021/04/02 02:08:02;;;;;;;8.05;3.22;;;4.10;91.10;;;;;;5092181;28;20043;-64
2021/04/02 02:10:29;;;;;;;12.43;3.22;;;4.10;90.90;;;;;;5091305;28;20063;-64
2021/04/02 02:12:56;;;;;;;10.20;3.38;;;4.10;91.20;;;;;;5082739;28;20127;-64
2021/04/02 02:15:24;;;;;;;8.95;2.90;;;4.10;91.00;;;;;;5072099;28;20043;-64
2021/04/02 02:17:56;;;;;;;11.57;4.13;;;4.00;91.10;;;;;;5073555;28;20041;-64
2021/04/02 02:20:22;;;;;;;7.70;3.17;;;4.00;90.90;;;;;;5089271;28;20042;-64
2021/04/02 02:22:48;;;;;;;9.60;2.97;;;4.00;91.30;;;;;;5071268;28;20448;-64
2021/04/02 02:25:14;;;;;;;8.77;3.33;;;4.00;90.90;;;;;;5090255;28;20124;-64
2021/04/02 02:27:41;;;;;;;6.78;2.88;;;3.90;90.70;;;;;;5090892;28;20039;-64
2021/04/02 02:30:10;;;;;;;8.25;2.92;;;3.80;90.90;;;;;;5088346;28;20032;-64
2021/04/02 02:32:36;;;;;;;7.60;3.15;;;3.80;90.90;;;;;;5068950;28;20112;-64
2021/04/02 02:35:04;;;;;;;8.48;2.97;;;3.80;90.80;;;;;;5087049;28;20111;-64
2021/04/02 02:37:30;;;;;;;8.68;3.25;;;3.80;90.80;;;;;;5088743;28;20043;-64
2021/04/02 02:39:56;;;;;;;12.98;2.95;;;3.80;90.90;;;;;;5090411;28;20392;-64
2021/04/02 02:42:22;;;;;;;7.57;2.78;;;3.80;91.00;;;;;;5089944;28;20506;-64
2021/04/02 02:44:48;;;;;;;9.98;2.97;;;3.70;91.00;;;;;;5088415;28;20477;-64
2021/04/02 02:47:14;;;;;;;7.25;3.08;;;3.70;90.90;;;;;;5090495;28;20044;-64
2021/04/02 02:49:42;;;;;;;9.18;3.40;;;3.70;90.80;;;;;;5089120;28;20052;-64
2021/04/02 02:52:08;;;;;;;8.32;2.83;;;3.70;90.90;;;;;;5090803;28;20036;-64
2021/04/02 02:54:36;;;;;;;7.22;3.00;;;3.60;90.90;;;;;;5089121;28;20046;-64
2021/04/02 02:57:03;;;;;;;9.70;3.22;;;3.60;91.00;;;;;;5089930;28;20358;-64
2021/04/02 02:59:30;;;;;;;12.95;3.42;;;3.70;91.20;;;;;;5089443;28;20032;-64
2021/04/02 03:01:57;;;;;;;10.02;3.15;;;3.70;91.20;;;;;;5088241;28;20040;-64
2021/04/02 03:04:25;;;;;;;11.60;3.35;;;3.70;91.00;;;;;;5085916;28;20123;-64
2021/04/02 03:06:52;;;;;;;6.25;3.10;;;3.60;91.10;;;;;;5083521;28;20506;-64
2021/04/02 03:09:19;;;;;;;12.30;3.72;;;3.60;91.00;;;;;;5071985;28;20444;-64
2021/04/02 03:11:47;;;;;;;9.40;3.00;;;3.60;91.10;;;;;;5089926;28;20040;-64
2021/04/02 03:14:21;;;;;;;10.32;2.90;;;3.60;91.30;;;;;;5089518;28;20448;-64
2021/04/02 03:16:50;;;;;;;10.90;3.05;;;3.70;91.20;;;;;;5089746;28;20051;-64
2021/04/02 03:19:22;;;;;;;13.90;3.20;;;3.80;91.30;;;;;;5089531;28;20036;-64
2021/04/02 03:21:48;;;;;;;9.68;3.15;;;3.70;91.20;;;;;;5085216;28;20491;-64
2021/04/02 03:24:15;;;;;;;7.63;2.92;;;3.80;91.20;;;;;;5090068;28;20047;-64
2021/04/02 03:26:47;;;;;;;10.77;2.75;;;3.80;91.10;;;;;;5090597;28;20066;-64
2021/04/02 03:29:14;;;;;;;8.73;2.47;;;3.80;91.20;;;;;;5089357;28;20036;-64
2021/04/02 03:31:42;;;;;;;11.68;2.88;;;3.80;91.00;;;;;;5090988;28;20096;-64
2021/04/02 03:34:11;;;;;;;7.80;2.50;;;3.80;90.90;;;;;;5097442;28;20067;-64
2021/04/02 03:36:40;;;;;;;10.38;3.72;;;3.80;91.00;;;;;;5095862;28;20365;-64
2021/04/02 03:39:10;;;;;;;7.53;2.83;;;3.80;91.00;;;;;;5094829;28;20063;-64
2021/04/02 03:41:38;;;;;;;12.95;3.35;;;3.90;91.10;;;;;;5076941;28;20064;-64
2021/04/02 03:44:06;;;;;;;13.73;3.00;;;4.00;91.10;;;;;;5097793;28;20110;-64
2021/04/02 03:46:35;;;;;;;7.57;2.55;;;4.10;91.00;;;;;;5096616;28;20036;-65
2021/04/02 03:49:02;;;;;;;9.13;2.50;;;4.10;90.90;;;;;;5097447;28;20040;-64
2021/04/02 03:51:32;;;;;;;15.07;2.92;;;4.20;90.90;;;;;;5074144;28;20102;-64
2021/04/02 03:54:03;;;;;;;13.10;2.58;;;4.20;90.70;;;;;;5096087;28;20089;-64
2021/04/02 03:56:31;;;;;;;12.15;3.08;;;4.30;90.80;;;;;;5094138;28;20388;-64
2021/04/02 03:58:58;;;;;;;11.75;2.60;;;4.30;90.60;;;;;;5078199;28;20048;-64
2021/04/02 04:01:26;;;;;;;7.53;2.50;;;4.30;90.70;;;;;;5097618;28;20497;-64
2021/04/02 04:03:55;;;;;;;14.27;3.10;;;4.40;90.60;;;;;;5096839;28;20033;-64
2021/04/02 04:06:22;;;;;;;9.05;2.63;;;4.50;90.30;;;;;;5095710;28;20042;-64
2021/04/02 04:08:52;;;;;;;9.38;2.60;;;4.50;90.40;;;;;;5092902;28;20157;-64
2021/04/02 04:11:21;;;;;;;12.05;2.92;;;4.50;90.30;;;;;;5095085;28;20036;-64
2021/04/02 04:13:48;;;;;;;8.73;2.35;;;4.60;90.20;;;;;;5095091;28;20127;-64
2021/04/02 04:16:18;;;;;;;9.50;2.28;;;4.60;89.40;;;;;;5076623;28;20506;-64
2021/04/02 04:18:47;;;;;;;17.90;3.03;;;4.70;89.70;;;;;;5083196;28;20122;-64
2021/04/02 04:21:14;;;;;;;13.57;2.55;;;4.70;88.40;;;;;;5094889;28;20046;-64
2021/04/02 04:23:41;;;;;;;10.40;2.70;;;4.80;88.80;;;;;;5093797;28;20115;-64
2021/04/02 04:26:10;;;;;;;10.43;2.08;;;4.80;88.30;;;;;;5093886;28;20039;-64
2021/04/02 04:28:38;;;;;;;9.07;2.17;;;4.80;88.20;;;;;;5093041;28;20041;-64
2021/04/02 04:31:07;;;;;;;7.45;2.53;;;4.90;88.00;;;;;;5094862;28;20040;-64
2021/04/02 04:33:33;;;;;;;8.75;2.38;;;5.00;87.00;;;;;;5095530;28;20040;-64
2021/04/02 04:36:00;;;;;;;6.07;1.65;;;5.00;85.60;;;;;;5080394;28;20462;-64
2021/04/02 04:38:28;;;;;;;7.43;2.00;;;5.00;84.70;;;;;;5092926;28;20040;-64
2021/04/02 04:40:55;;;;;;;8.70;2.15;;;5.10;89.30;;;;;;5096633;28;20048;-65
2021/04/02 04:43:23;;;;;;;10.68;2.38;;;5.10;85.60;;;;;;5092111;28;20044;-64
2021/04/02 04:45:49;;;;;;;8.68;1.98;;;5.20;86.20;;;;;;5074477;28;20028;-64
2021/04/02 04:48:15;;;;;;;7.38;2.13;;;5.20;85.30;;;;;;5092199;28;20481;-65
2021/04/02 04:50:41;;;;;;;7.07;1.95;;;5.30;87.50;;;;;;5092338;28;20039;-64
2021/04/02 04:53:14;;;;;;;11.32;2.30;;;5.30;86.70;;;;;;5090482;28;20043;-65
2021/04/02 04:55:41;;;;;;;9.48;2.63;;;5.30;83.50;;;;;;5086423;28;20123;-64
2021/04/02 04:58:13;;;;;;;13.63;2.50;;;5.30;85.10;;;;;;5091938;28;20036;-64
2021/04/02 05:00:41;;;;;;;9.90;2.28;;;5.40;82.60;;;;;;5090847;28;20130;-64
2021/04/02 05:03:10;;;;;;;9.43;1.75;;;5.40;81.10;;;;;;5080252;28;20211;-65
2021/04/02 05:05:39;;;;;;;6.68;2.00;;;5.30;83.10;;;;;;5084713;28;20040;-64
2021/04/02 05:08:07;;;;;;;6.70;1.85;;;5.30;81.40;;;;;;5091787;28;20481;-64
2021/04/02 05:10:34;;;;;;;12.68;2.05;;;5.30;81.00;;;;;;5090591;28;20043;-64
2021/04/02 05:13:01;;;;;;;7.72;1.95;;;5.30;81.30;;;;;;5082688;28;20051;-64
2021/04/02 05:15:28;;;;;;;8.25;1.67;;;5.40;83.40;;;;;;5090501;28;20523;-65
2021/04/02 05:17:55;;;;;;;6.03;1.40;;;5.30;80.10;;;;;;5074018;28;20036;-64
2021/04/02 05:20:40;;;;;;;7.85;1.90;;;5.30;80.90;;;;;;5085686;28;20040;-65
2021/04/02 05:23:06;;;;;;;7.35;1.60;;;5.30;82.20;;;;;;5089115;28;20060;-64
2021/04/02 05:25:32;;;;;;;9.05;1.60;;;5.40;82.10;;;;;;5091994;28;20048;-64
2021/04/02 05:27:58;;;;;;;9.52;1.50;;;5.40;81.20;;;;;;5090743;28;20043;-64
2021/04/02 05:30:25;;;;;;;9.85;2.03;;;5.40;81.20;;;;;;5072781;28;20036;-64
2021/04/02 05:32:51;;;;;;;11.10;2.17;;;5.40;81.80;;;;;;5089950;28;20060;-64
2021/04/02 05:35:17;;;;;;;9.07;1.55;;;5.40;79.20;;;;;;5092065;28;20105;-64
2021/04/02 05:37:42;;;;;;;5.75;1.58;;;5.40;80.70;;;;;;5091577;28;20032;-64
2021/04/02 05:40:09;;;;;;;8.82;2.33;;;5.40;80.30;;;;;;5090498;28;20068;-64
2021/04/02 05:42:40;;;;;;;9.35;2.08;;;5.40;80.60;;;;;;5091346;28;20831;-64
2021/04/02 05:45:07;;;;;;;12.20;2.03;;;5.50;80.60;;;;;;5091989;28;20070;-64
2021/04/02 05:47:33;;;;;;;6.10;1.30;;;5.50;82.10;;;;;;5091309;28;20040;-64
2021/04/02 05:50:01;;;;;;;9.95;2.17;;;5.50;81.90;;;;;;5090821;28;20040;-65
2021/04/02 05:52:29;;;;;;;6.65;1.70;;;5.60;79.30;;;;;;5091693;28;20240;-65
2021/04/02 05:54:57;;;;;;;11.23;2.00;;;5.60;79.60;;;;;;5073771;28;20482;-64
2021/04/02 05:57:24;;;;;;;8.27;1.45;;;5.60;80.50;;;;;;5073716;28;20484;-70
2021/04/02 05:59:52;;;;;;;5.15;1.45;;;5.70;81.00;;;;;;5087603;28;20074;-70
2021/04/02 06:02:18;;;;;;;6.13;1.67;;;5.70;80.70;;;;;;5092293;28;20035;-70
2021/04/02 06:04:44;;;;;;;5.78;1.70;;;5.80;78.80;;;;;;5092434;28;20202;-70
2021/04/02 06:07:10;;;;;;;8.57;1.80;;;5.80;79.70;;;;;;5088610;28;20035;-70
2021/04/02 06:09:36;;;;;;;9.85;2.50;;;5.80;77.50;;;;;;5057268;28;20385;-70
2021/04/02 06:12:01;;;;;;;6.47;1.83;;;5.60;77.30;;;;;;5080046;28;20504;-70
2021/04/02 06:14:27;;;;;;;14.15;2.30;;;5.60;77.50;;;;;;5070685;28;20040;-70
2021/04/02 06:16:54;;;;;;;10.30;1.90;;;5.70;77.90;;;;;;5054068;28;20060;-70
2021/04/02 06:19:40;;;;;;;8.63;1.83;;;5.70;77.30;;;;;;5072011;28;20432;-70
2021/04/02 06:22:09;;;;;;;10.25;1.75;;;5.80;77.60;;;;;;5062856;28;20048;-70
2021/04/02 06:24:46;;;;;;;8.90;2.00;;;5.80;77.60;;;;;;5076694;28;20036;-70
2021/04/02 06:27:13;;;;;;;10.25;2.05;;;5.90;78.90;;;;;;5089860;28;20075;-70
2021/04/02 06:29:43;;;;;;;7.05;1.55;;;5.80;76.60;;;;;;5055876;28;20089;-70
2021/04/02 06:32:14;;;;;;;9.05;1.98;;;5.80;78.50;;;;;;5081047;28;20036;-70
2021/04/02 06:34:48;;;;;;;8.80;1.92;;;5.80;78.70;;;;;;5057879;28;20074;-70
2021/04/02 06:37:18;;;;;;;6.15;1.83;;;5.80;76.70;;;;;;5090592;28;20047;-70
2021/04/02 06:39:51;;;;;;;9.95;2.53;;;5.80;77.80;;;;;;5089074;28;20143;-70
2021/04/02 06:42:31;;;;;;;10.35;1.90;;;5.90;77.00;;;;;;5091348;28;20036;-70
2021/04/02 06:45:06;;;;;;;8.85;2.25;;;5.90;76.40;;;;;;5072897;28;20060;-70
2021/04/02 06:47:36;;;;;;;10.82;1.67;;;5.90;77.50;;;;;;5088454;28;20476;-70
2021/04/02 06:50:23;;;;;;;9.90;2.03;;;6.00;77.90;;;;;;5090782;28;20264;-70
2021/04/02 06:52:51;;;;;;;7.57;1.90;;;6.10;77.50;;;;;;5066227;28;20054;-70
2021/04/02 06:55:18;;;;;;;9.07;2.10;;;6.10;76.60;;;;;;5091486;28;20036;-70
2021/04/02 06:57:47;;;;;;;8.02;2.10;;;6.10;75.80;;;;;;5084791;28;20136;-70
2021/04/02 07:00:18;;;;;;;6.93;1.88;;;6.20;76.90;;;;;;5087889;28;20042;-69
2021/04/02 07:02:46;;;;;;;10.02;2.60;;;6.20;77.50;;;;;;5087469;28;20161;-70
2021/04/02 07:05:15;;;;;;;6.78;2.00;;;5.90;74.40;;;;;;5061636;28;20048;-70
2021/04/02 07:07:41;;;;;;;8.48;2.00;;;5.90;74.30;;;;;;5086545;28;20481;-70
2021/04/02 07:10:09;;;;;;;10.35;2.35;;;5.90;75.10;;;;;;5069955;28;20028;-70
2021/04/02 07:12:37;;;;;;;9.25;1.98;;;5.90;74.50;;;;;;5090422;28;20047;-70
2021/04/02 07:15:03;;;;;;;9.10;2.13;;;6.00;75.60;;;;;;5082305;28;20169;-70
2021/04/02 07:17:30;;;;;;;5.60;1.83;;;6.20;75.80;;;;;;5090829;28;20044;-70
2021/04/02 07:19:57;;;;;;;11.90;2.00;;;6.20;74.60;;;;;;5068679;28;20043;-70
2021/04/02 07:22:23;;;;;;;6.50;1.98;;;6.30;74.20;;;;;;5088741;28;20036;-70
2021/04/02 07:24:50;;;;;;;12.07;2.72;;;6.40;73.90;;;;;;5088855;28;20716;-70
2021/04/02 07:27:15;;;;;;;11.15;3.25;;;6.40;74.60;;;;;;5065057;28;20044;-70
2021/04/02 07:29:41;;;;;;;9.90;1.90;;;6.50;73.60;;;;;;5088666;28;20050;-70
2021/04/02 07:32:07;;;;;;;9.88;1.90;;;6.70;78.70;;;;;;5090938;28;20040;-70
2021/04/02 07:34:34;;;;;;;10.85;2.50;;;6.90;78.80;;;;;;5088777;28;20061;-70
2021/04/02 07:37:00;;;;;;;9.73;2.10;;;6.90;74.30;;;;;;5088501;28;20054;-70
2021/04/02 07:39:30;;;;;;;7.50;1.70;;;6.90;74.40;;;;;;5088543;28;20486;-70
2021/04/02 07:41:56;;;;;;;8.18;1.77;;;7.20;78.20;;;;;;5088758;28;20090;-70
2021/04/02 07:44:22;;;;;;;9.38;2.45;;;7.20;76.10;;;;;;5090135;28;20040;-70
2021/04/02 07:47:20;;;;;;;9.20;2.10;;;6.50;70.60;;;;;;5089399;28;20182;-70
2021/04/02 07:49:49;;;;;;;11.15;2.00;;;6.60;72.80;;;;;;5063353;28;20036;-70
2021/04/02 07:52:15;;;;;;;7.30;1.50;;;6.50;72.20;;;;;;5088354;28;20044;-70
2021/04/02 07:54:44;;;;;;;8.52;1.90;;;6.80;72.00;;;;;;5088389;28;20036;-70
2021/04/02 07:57:10;;;;;;;5.30;1.60;;;7.00;76.80;;;;;;5090531;28;20613;-70
2021/04/02 07:59:41;;;;;;;7.50;1.50;;;7.10;72.50;;;;;;5089664;28;20114;-70
2021/04/02 08:02:29;;;;;;;9.10;1.85;;;7.20;72.40;;;;;;5071184;28;20036;-70
2021/04/02 08:04:57;;;;;;;11.65;1.85;;;7.10;67.50;;;;;;5090227;28;20040;-70
2021/04/02 08:07:37;;;;;;;9.07;1.88;;;7.10;69.50;;;;;;5089892;28;20158;-69
2021/04/02 08:10:08;;;;;;;11.25;1.90;;;7.00;68.90;;;;;;5071007;28;20123;-69
2021/04/02 08:12:35;;;;;;;7.28;1.65;;;7.20;70.20;;;;;;5088740;28;20393;-70
2021/04/02 08:15:16;;;;;;;13.55;2.03;;;7.40;70.70;;;;;;5087151;28;20040;-69
2021/04/02 08:17:43;;;;;;;8.45;2.45;;;7.50;73.10;;;;;;5090834;28;20032;-70
2021/04/02 08:20:13;;;;;;;9.73;1.77;;;7.70;71.90;;;;;;5093009;28;20522;-70
2021/04/02 08:22:39;;;;;;;10.73;2.28;;;7.80;70.70;;;;;;5091526;28;20065;-70
2021/04/02 08:25:11;;;;;;;13.80;2.95;;;7.80;71.30;;;;;;5073726;28;20132;-70
2021/04/02 08:27:38;;;;;;;11.68;2.03;;;7.40;69.40;;;;;;5091166;28;20520;-70
2021/04/02 08:30:07;;;;;;;16.27;2.83;;;7.50;70.50;;;;;;5093641;28;20055;-70
2021/04/02 08:32:35;;;;;;;11.32;2.00;;;7.80;70.90;;;;;;5091077;28;20054;-70
2021/04/02 08:35:01;;;;;;;8.20;2.00;;;8.00;69.80;;;;;;5090833;28;20081;-70
2021/04/02 08:37:29;;;;;;;13.48;2.25;;;8.00;67.70;;;;;;5092115;28;20044;-71
2021/04/02 08:40:00;;;;;;;9.20;1.77;;;8.10;71.50;;;;;;5091101;28;20052;-70
2021/04/02 08:42:30;;;;;;;12.63;2.30;;;8.30;72.50;;;;;;5093078;28;20028;-70
2021/04/02 08:44:56;;;;;;;7.50;2.15;;;8.00;65.70;;;;;;5089165;28;20099;-70
2021/04/02 08:47:21;;;;;;;8.15;1.95;;;8.30;69.70;;;;;;5092523;28;20028;-71
2021/04/02 08:49:54;;;;;;;8.85;1.45;;;8.30;65.80;;;;;;5075161;28;20111;-70
2021/04/02 08:52:22;;;;;;;6.88;1.65;;;8.40;70.50;;;;;;5090972;28;20060;-71
2021/04/02 08:54:55;;;;;;;10.68;2.25;;;8.30;66.30;;;;;;5092804;28;20119;-70
2021/04/02 08:57:29;;;;;;;9.65;1.92;;;8.50;66.30;;;;;;5071903;28;20032;-70
2021/04/02 08:59:55;;;;;;;9.20;1.73;;;8.70;63.60;;;;;;5074049;28;20051;-70
2021/04/02 09:02:25;;;;;;;9.52;1.92;;;9.00;67.80;;;;;;5072409;28;20055;-73
2021/04/02 09:04:51;;;;;;;11.45;1.75;;;9.30;65.00;;;;;;5076219;28;20089;-70
2021/04/02 09:07:17;;;;;;;8.90;2.15;;;9.50;67.60;;;;;;5088742;28;20035;-70
2021/04/02 09:09:46;;;;;;;6.63;1.52;;;9.30;64.50;;;;;;5084230;28;20565;-70
2021/04/02 09:12:18;;;;;;;7.07;1.58;;;9.20;66.10;;;;;;5092167;28;20082;-70
2021/04/02 09:14:54;;;;;;;9.95;2.33;;;9.10;65.70;;;;;;5092277;28;20119;-70
2021/04/02 09:17:21;;;;;;;9.70;1.80;;;9.10;62.70;;;;;;5085223;28;20041;-70
2021/04/02 09:19:47;;;;;;;8.68;1.65;;;8.90;64.20;;;;;;5092009;28;20382;-71
2021/04/02 09:22:14;;;;;;;8.02;2.25;;;8.80;64.20;;;;;;5092038;28;20422;-70
2021/04/02 09:24:41;;;;;;;20.70;2.15;;;8.90;65.20;;;;;;5088946;28;20447;-69
2021/04/02 09:27:12;;;;;;;7.88;1.52;;;8.40;65.90;;;;;;5091188;28;20093;-70
2021/04/02 09:29:41;;;;;;;10.40;2.78;;;8.60;66.10;;;;;;5068083;28;20036;-70
2021/04/02 09:32:07;;;;;;;9.38;1.60;;;8.80;66.90;;;;;;5089082;28;20046;-70
2021/04/02 09:34:33;;;;;;;9.05;1.77;;;8.90;67.30;;;;;;5090367;28;20036;-70
2021/04/02 09:37:00;;;;;;;10.48;1.77;;;8.80;66.60;;;;;;5090595;28;20652;-69
2021/04/02 09:39:27;;;;;;;9.32;1.92;;;8.60;66.00;;;;;;5090298;28;20036;-70
2021/04/02 09:41:55;;;;;;;8.60;2.25;;;8.50;67.30;;;;;;5072193;28;20093;-70
2021/04/02 09:44:26;;;;;;;7.85;1.88;;;8.60;68.90;;;;;;5091274;28;20028;-69
2021/04/02 09:47:02;;;;;;;8.82;1.90;;;8.50;69.10;;;;;;5091132;28;20043;-70
2021/04/02 09:49:28;;;;;;;8.80;1.83;;;8.50;70.00;;;;;;5091322;28;20036;-70
2021/04/02 09:51:55;;;;;;;11.48;2.33;;;8.40;69.70;;;;;;5090353;28;20043;-70
2021/04/02 09:54:25;;;;;;;8.40;1.70;;;8.30;70.60;;;;;;5089672;28;20081;-70
2021/04/02 09:56:53;;;;;;;9.65;1.55;;;8.30;71.20;;;;;;5090088;28;20024;-69
2021/04/02 09:59:19;;;;;;;12.63;1.90;;;8.30;70.00;;;;;;5090657;28;20036;-70
2021/04/02 10:01:46;;;;;;;12.30;1.92;;;8.20;71.30;;;;;;5090987;28;20047;-70
2021/04/02 10:04:13;;;;;;;8.18;1.90;;;8.30;71.90;;;;;;5087840;28;20039;-70
2021/04/02 10:06:39;;;;;;;7.30;1.80;;;8.30;70.40;;;;;;5089367;28;20039;-70
2021/04/02 10:09:06;;;;;;;10.02;2.20;;;8.20;72.00;;;;;;5082002;28;20049;-70
2021/04/02 10:11:37;;;;;;;7.45;1.52;;;8.20;70.40;;;;;;5091385;28;20051;-70
2021/04/02 10:14:04;;;;;;;12.75;2.40;;;8.40;68.90;;;;;;5092097;28;20104;-70
2021/04/02 10:16:31;;;;;;;7.72;1.95;;;8.50;68.00;;;;;;5091283;28;20036;-70
2021/04/02 10:18:56;;;;;;;6.22;1.70;;;8.30;68.60;;;;;;5073916;28;20097;-70
2021/04/02 10:21:23;;;;;;;11.05;1.73;;;8.40;69.50;;;;;;5091524;28;20036;-70
2021/04/02 10:23:52;;;;;;;7.95;1.30;;;8.50;71.40;;;;;;5092137;28;20112;-70
2021/04/02 10:26:19;;;;;;;8.35;1.80;;;8.70;70.40;;;;;;5090416;28;20051;-70
2021/04/02 10:28:45;;;;;;;6.95;2.33;;;8.50;69.10;;;;;;5092055;28;20543;-70
2021/04/02 10:31:12;;;;;;;9.23;2.08;;;8.30;70.80;;;;;;5091688;28;20040;-70
2021/04/02 10:33:38;;;;;;;11.07;2.05;;;8.20;72.10;;;;;;5090998;28;20067;-70
2021/04/02 10:36:04;;;;;;;10.57;1.98;;;8.30;71.90;;;;;;5090043;28;20070;-70
2021/04/02 10:38:30;;;;;;;8.00;2.17;;;8.20;71.30;;;;;;5090128;28;20040;-70
2021/04/02 10:40:56;;;;;;;11.43;3.30;;;8.30;71.90;;;;;;5090657;28;20044;-70
2021/04/02 10:43:22;;;;;;;8.90;2.00;;;8.60;71.30;;;;;;5090119;28;20101;-70
2021/04/02 10:45:49;;;;;;;8.57;1.70;;;8.70;70.20;;;;;;5089410;28;20477;-70
2021/04/02 10:48:15;;;;;;;5.50;1.20;;;8.50;68.50;;;;;;5090442;28;20339;-70
2021/04/02 10:50:42;;;;;;;5.93;1.70;;;8.50;69.10;;;;;;5085554;28;20043;-70
2021/04/02 10:53:09;;;;;;;6.10;1.40;;;8.60;67.50;;;;;;5081080;28;20044;-70
2021/04/02 10:55:34;;;;;;;8.25;2.08;;;8.90;70.40;;;;;;5075910;28;20123;-70
2021/04/02 10:58:00;;;;;;;8.27;2.17;;;8.80;68.20;;;;;;5086674;28;20521;-70
2021/04/02 11:00:26;;;;;;;11.63;2.40;;;8.60;67.70;;;;;;5060688;28;20372;-70
2021/04/02 11:02:52;;;;;;;9.02;1.92;;;8.60;69.70;;;;;;5073909;28;20040;-70
2021/04/02 11:05:19;;;;;;;5.40;1.45;;;8.70;67.50;;;;;;5073670;28;20046;-70
2021/04/02 11:07:45;;;;;;;6.47;2.03;;;8.70;68.40;;;;;;5089799;28;20040;-70
2021/04/02 11:10:12;;;;;;;8.57;1.75;;;8.90;67.50;;;;;;5087558;28;20051;-71
2021/04/02 11:12:39;;;;;;;5.93;1.27;;;8.70;64.90;;;;;;5090346;28;20104;-70
2021/04/02 11:15:07;;;;;;;6.45;1.63;;;8.90;67.10;;;;;;5072356;28;20582;-70
2021/04/02 11:17:33;;;;;;;6.95;1.60;;;8.90;66.10;;;;;;5083216;28;20040;-69
2021/04/02 11:19:59;;;;;;;5.18;1.42;;;8.80;65.40;;;;;;5090215;28;20040;-69
2021/04/02 11:22:25;;;;;;;4.90;1.10;;;8.70;67.50;;;;;;5069635;28;20051;-70
2021/04/02 11:24:54;;;;;;;4.63;2.28;;;8.60;67.80;;;;;;5089236;28;20043;-69
2021/04/02 11:27:20;;;;;;;6.82;1.50;;;8.90;65.70;;;;;;5090582;28;20062;-70
2021/04/02 11:29:46;;;;;;;6.60;1.50;;;8.90;68.20;;;;;;5072754;28;20123;-70
2021/04/02 11:32:13;;;;;;;7.85;1.60;;;8.60;64.60;;;;;;5091069;28;20040;-71
2021/04/02 11:34:39;;;;;;;7.95;1.73;;;8.50;68.60;;;;;;5082627;28;20040;-70
2021/04/02 11:37:05;;;;;;;7.55;1.58;;;8.60;68.20;;;;;;5070125;28;20032;-70
2021/04/02 11:39:32;;;;;;;3.90;1.20;;;8.40;68.40;;;;;;5086991;28;20102;-70
2021/04/02 11:41:57;;;;;;;5.82;1.77;;;8.40;70.00;;;;;;5089999;28;20036;-70
2021/04/02 11:44:24;;;;;;;3.40;1.38;;;8.60;67.70;;;;;;5088124;28;20035;-70
2021/04/02 11:46:51;;;;;;;6.78;1.48;;;8.70;69.40;;;;;;5088839;28;20048;-69
2021/04/02 11:49:17;;;;;;;9.75;2.08;;;8.50;66.20;;;;;;5087301;28;20044;-70
2021/04/02 11:51:43;;;;;;;6.90;1.70;;;8.40;66.90;;;;;;5089093;28;20043;-71
2021/04/02 11:54:09;;;;;;;5.13;1.50;;;8.40;67.40;;;;;;5092862;28;20084;-71
2021/04/02 11:56:35;;;;;;;5.10;1.50;;;8.50;67.30;;;;;;5093953;28;20040;-70
2021/04/02 11:59:01;;;;;;;10.15;2.38;;;8.50;67.80;;;;;;5069618;28;20064;-71
2021/04/02 12:01:26;;;;;;;5.93;1.70;;;8.90;69.60;;;;;;5094613;28;20047;-70
2021/04/02 12:03:52;;;;;;;9.93;2.13;;;9.10;66.10;;;;;;5093890;28;20643;-71
2021/04/02 12:06:18;;;;;;;10.25;1.95;;;9.10;66.70;;;;;;5090220;28;20024;-70
2021/04/02 12:08:44;;;;;;;6.78;1.55;;;9.30;64.70;;;;;;5092987;28;20063;-71
2021/04/02 12:11:09;;;;;;;4.95;1.65;;;9.30;65.40;;;;;;5094366;28;20051;-70
2021/04/02 12:13:35;;;;;;;9.88;1.65;;;9.20;65.60;;;;;;5068568;28;20138;-70
2021/04/02 12:16:01;;;;;;;7.35;1.83;;;9.20;67.80;;;;;;5076143;28;20059;-71
2021/04/02 12:18:27;;;;;;;9.32;1.77;;;9.20;65.80;;;;;;5094307;28;20047;-70
2021/04/02 12:20:52;;;;;;;7.50;1.60;;;9.40;64.50;;;;;;5076432;28;20108;-71
2021/04/02 12:23:19;;;;;;;7.68;1.73;;;9.20;64.40;;;;;;5082892;28;20037;-71
2021/04/02 12:25:45;;;;;;;9.65;2.25;;;9.30;61.60;;;;;;5091871;28;20086;-71
2021/04/02 12:28:10;;;;;;;7.43;1.95;;;9.40;62.70;;;;;;5092514;28;20031;-71
2021/04/02 12:30:36;;;;;;;7.70;1.52;;;9.60;63.80;;;;;;5091005;28;20064;-71
2021/04/02 12:33:02;;;;;;;8.00;1.98;;;9.60;63.30;;;;;;5093030;28;20032;-71
2021/04/02 12:35:28;;;;;;;9.43;1.67;;;9.60;57.20;;;;;;5093676;28;20759;-71
2021/04/02 12:37:53;;;;;;;6.47;1.80;;;9.80;62.10;;;;;;5092928;28;20561;-71
2021/04/02 12:40:21;;;;;;;5.53;1.10;;;10.00;60.70;;;;;;5093706;28;20107;-71
2021/04/02 12:42:47;;;;;;;3.85;1.08;;;10.00;58.00;;;;;;5075530;28;20032;-71
2021/04/02 12:45:14;;;;;;;7.20;1.45;;;9.90;59.40;;;;;;5093821;28;20070;-71
2021/04/02 12:47:41;;;;;;;3.55;1.10;;;10.20;61.40;;;;;;5092801;28;20036;-72
2021/04/02 12:50:11;;;;;;;4.93;1.20;;;10.10;62.00;;;;;;5092689;28;20135;-71
2021/04/02 12:52:37;;;;;;;3.95;1.00;;;10.20;58.60;;;;;;5073551;28;20545;-71
2021/04/02 12:55:04;;;;;;;8.32;1.80;;;10.00;58.50;;;;;;5092225;28;20039;-72
2021/04/02 12:57:30;;;;;;;6.68;1.52;;;9.70;55.60;;;;;;5092736;28;20146;-71